• Join FlightAware (Why Join?)
  • Login
  • US Flag 
08:30AM EDT


 

Airport Tracker/Info


-or-


 

Live Flight TrackerFlight Track Log ✈ DAL2288 ✈ 22-Jul-2013 ✈ KATL - KBOS

Flight Track Log - Related Links

Times and Time Zones

All times are in EDT time to prevent confusion due to time zone crossing. See the DAL2288 flight status page for this flight to view local times or setup timezone preferences in your user account.

Time Position Orientation Groundspeed Altitude Reporting Facility
EDT Latitude Longitude Course Direction KTS MPH feet Rate Location/Type
02:14PM 33.6333 -84.4667 53° Northeast 168 193 2,800  Level Atlanta TRACON
02:15PM 33.6167 -84.5333 253° West 236 272 4,500 2,340 Climbing Atlanta TRACON
02:16PM 33.5667 -84.5833 220° Southwest 277 319 7,500 2,700 Climbing Atlanta TRACON
02:17PM 33.7447 -83.9868 54° Northeast  Level FlightAware Approximate
02:17PM 33.4833 -84.5833 180° South 301 346 9,900  Level Atlanta TRACON
02:18PM 33.8183 -83.8641 54° Northeast  Level FlightAware Approximate
02:18PM 33.4500 -84.4833 112° Southeast 323 372 10,500  Level Atlanta TRACON
02:19PM 33.8956 -83.7447 48° Northeast  Level FlightAware Approximate
02:19PM 33.4786 -84.3428 76° East 360 414 13,000  Level Atlanta Center
02:20PM 33.9735 -83.6257 53° Northeast  Level FlightAware Approximate
02:20PM 33.5603 -84.2606 40° Northeast 358 412 15,300  Level Atlanta Center
02:21PM 33.6481 -84.1786 38° Northeast 381 438 17,800 2,220 Climbing Atlanta Center
02:22PM 33.7358 -84.0914 40° Northeast 400 460 19,800 1,440 Climbing Atlanta Center
02:23PM 33.8006 -83.9664 58° Northeast 416 479 20,700 960 Climbing Atlanta Center
02:24PM 33.8692 -83.8336 58° Northeast 452 520 21,800 1,140 Climbing Atlanta Center
02:25PM 33.9442 -83.6958 57° Northeast 480 552 23,000 2,040 Climbing Atlanta Center
02:26PM 34.0272 -83.5625 53° Northeast 490 564 25,900 1,980 Climbing Atlanta Center
02:27PM 34.1058 -83.4417 52° Northeast 477 549 27,000 900 Climbing Atlanta Center
02:28PM 34.1844 -83.3081 55° Northeast 477 549 27,700 840 Climbing Atlanta Center
02:29PM 34.2711 -83.1742 52° Northeast 488 562 28,700 1,140 Climbing Atlanta Center
02:30PM 34.3456 -83.0525 53° Northeast 503 579 30,000 1,380 Climbing Atlanta Center
02:31PM 34.4278 -82.9156 54° Northeast 508 585 31,500 1,440 Climbing Atlanta Center
02:32PM 34.5100 -82.7858 52° Northeast 496 571 32,900 1,260 Climbing Atlanta Center
02:33PM 34.5878 -82.6486 55° Northeast 491 565 34,100 1,020 Climbing Atlanta Center
02:34PM 34.6739 -82.5233 50° Northeast 486 559 35,000 420 Climbing Atlanta Center
02:35PM 34.7536 -82.3906 54° Northeast 481 554 35,000  Level Atlanta Center
02:36PM 34.8333 -82.2597 53° Northeast 481 554 35,000  Level Atlanta Center
02:37PM 34.9125 -82.1289 54° Northeast 481 554 35,000  Level Atlanta Center
02:38PM 35.0019 -81.9797 54° Northeast 486 559 35,000  Level Atlanta Center
02:39PM 35.0811 -81.8433 55° Northeast 486 559 35,000  Level Atlanta Center
02:40PM 35.1536 -81.6992 58° Northeast 492 566 35,000  Level Atlanta Center
02:41PM 35.2278 -81.5572 57° Northeast 492 566 35,000  Level Atlanta Center
02:42PM 35.3000 -81.4175 58° Northeast 487 560 35,000  Level Atlanta Center
02:43PM 35.3722 -81.2753 58° Northeast 492 566 35,000  Level Atlanta Center
02:44PM 35.4458 -81.1300 58° Northeast 492 566 35,000  Level Atlanta Center
02:45PM 35.5217 -80.9819 58° Northeast 508 585 35,000  Level Atlanta Center
02:46PM 35.5972 -80.8411 57° Northeast 502 578 35,000  Level Atlanta Center
02:47PM 35.6708 -80.7028 57° Northeast 495 570 35,000  Level Atlanta Center
02:48PM 35.7461 -80.5589 57° Northeast 495 570 35,000  Level Atlanta Center
02:49PM 35.8192 -80.4175 57° Northeast 495 570 35,000  Level Atlanta Center
02:52PM 35.9103 -80.2314 59° Northeast  Level FlightAware Approximate
02:52PM 36.0039 -80.0569 59° Northeast 497 572 35,000  Level Washington Center
02:53PM 36.0800 -79.9147 56° Northeast 485 558 35,000  Level Washington Center
02:54PM 36.1603 -79.7753 54° Northeast 490 564 35,000  Level Washington Center
02:55PM 36.2469 -79.6200 55° Northeast 496 571 35,000  Level Washington Center
02:56PM 36.3178 -79.4922 55° Northeast 496 571 35,000  Level Washington Center
02:57PM 36.4000 -79.3389 56° Northeast 491 565 35,000  Level Washington Center
02:58PM 36.4794 -79.2006 54° Northeast 491 565 35,000  Level Washington Center
02:59PM 36.5539 -79.0775 53° Northeast 496 571 35,000  Level Washington Center
03:00PM 36.6353 -78.9311 55° Northeast 496 571 35,000  Level Washington Center
03:01PM 36.7081 -78.7839 58° Northeast 502 578 35,000  Level Washington Center
03:02PM 36.7889 -78.6444 54° Northeast 502 578 35,000  Level Washington Center
03:03PM 36.8656 -78.5022 56° Northeast 496 571 35,000 600 Level Washington Center
03:04PM 36.9506 -78.3469 56° Northeast 491 565 36,300 960 Climbing Washington Center
03:05PM 37.0389 -78.2225 48° Northeast 491 565 37,000 300 Climbing Washington Center
03:06PM 37.1372 -78.1189 40° Northeast 469 540 37,000  Level Washington Center
03:07PM 37.2394 -78.0075 41° Northeast 463 533 37,000  Level Washington Center
03:08PM 37.3419 -77.8958 41° Northeast 476 548 37,000  Level Washington Center
03:09PM 37.4442 -77.7786 42° Northeast 481 554 37,000  Level Washington Center
03:10PM 37.5464 -77.6636 42° Northeast 481 554 37,000  Level Washington Center
03:11PM 37.6483 -77.5483 42° Northeast 481 554 37,000  Level Washington Center
03:12PM 37.7525 -77.4356 41° Northeast 486 559 37,000  Level Washington Center
03:13PM 37.8542 -77.3197 42° Northeast 486 559 37,000  Level Washington Center
03:14PM 37.9558 -77.2036 42° Northeast 486 559 37,000  Level Washington Center
03:15PM 38.0575 -77.0897 41° Northeast 491 565 37,000  Level Washington Center
03:16PM 38.1589 -76.9781 41° Northeast 491 565 37,000  Level Washington Center
03:17PM 38.2583 -76.8636 42° Northeast 485 558 37,000  Level Washington Center
03:18PM 38.3594 -76.7514 41° Northeast 485 558 37,000  Level Washington Center
03:19PM 38.4586 -76.6336 43° Northeast 479 551 37,000  Level Washington Center
03:20PM 38.5575 -76.5208 42° Northeast 479 551 37,000  Level Washington Center
03:21PM 38.6583 -76.4025 42° Northeast 479 551 37,000  Level Washington Center
03:22PM 38.7592 -76.2839 43° Northeast 479 551 37,000  Level Washington Center
03:23PM 38.8578 -76.1728 41° Northeast 479 551 37,000  Level Washington Center
03:24PM 38.9583 -76.0586 41° Northeast 479 551 37,000  Level Washington Center
03:25PM 39.0586 -75.9392 43° Northeast 479 551 37,000  Level Washington Center
03:26PM 39.1569 -75.8217 43° Northeast 479 551 37,000  Level Washington Center
03:27PM 39.2572 -75.7069 42° Northeast 479 551 37,000  Level Washington Center
03:28PM 39.3553 -75.5889 43° Northeast 479 551 37,000  Level Washington Center
03:29PM 39.4550 -75.4678 43° Northeast 474 545 37,000  Level Washington Center
03:30PM 39.5550 -75.3492 42° Northeast 474 545 37,000  Level Washington Center
03:32PM 39.7742 -75.0817 43° Northeast 489 563 37,000  Level New York Center
03:33PM 39.8744 -74.9633 42° Northeast 479 551 37,000  Level New York Center
03:34PM 39.9750 -74.8258 46° Northeast 479 551 37,000  Level New York Center
03:35PM 40.0628 -74.6981 48° Northeast 471 542 37,000  Level New York Center
03:36PM 40.1486 -74.5617 51° Northeast 484 557 37,000  Level New York Center
03:37PM 40.2383 -74.4253 49° Northeast 484 557 37,000 -120 Level New York Center
03:38PM 40.3258 -74.2883 50° Northeast 484 557 36,800 -840 Descending New York Center
03:39PM 40.4153 -74.1539 49° Northeast 484 557 35,300 -1,380 Descending New York Center
03:40PM 40.5025 -74.0136 51° Northeast 489 563 34,200 -2,280 Descending New York Center
03:42PM 40.6883 -73.7264 49° Northeast 514 592 28,500 -2,580 Descending Boston Center
03:43PM 40.7628 -73.5936 53° Northeast 514 592 26,500 -2,100 Descending Boston Center
03:44PM 40.8475 -73.4553 51° Northeast 502 578 24,300 -1,200 Descending Boston Center
03:46PM 40.9486 -73.3167 46° Northeast 485 558 24,000 -240 Descending Boston Center
03:47PM 41.0517 -73.1639 48° Northeast 468 539 23,900 -300 Descending Boston Center
03:48PM 41.1400 -73.0328 48° Northeast 463 533 23,400 -480 Descending Boston Center
03:49PM 41.2219 -72.8981 51° Northeast 463 533 23,000 -240 Descending Boston Center
03:50PM 41.2828 -72.7606 59° Northeast 463 533 23,000  Level Boston Center
03:51PM 41.3394 -72.6033 64° Northeast 463 533 23,000  Level Boston Center
03:52PM 41.3875 -72.4456 68° East 463 533 23,000 -840 Level Boston Center
03:53PM 41.4394 -72.2878 66° East 463 533 21,400 -1,920 Descending Boston Center
03:54PM 41.4956 -72.1269 65° Northeast 449 517 19,200 -2,100 Descending Boston Center
03:55PM 41.5431 -71.9936 65° Northeast 434 499 17,300 -2,040 Descending Boston Center
03:56PM 41.5922 -71.8378 67° East 419 482 15,200 -1,920 Descending Boston Center
03:57PM 41.6311 -71.7208 66° East 398 458 13,500 -1,800 Descending Boston Center
03:58PM 41.6761 -71.5758 67° East 385 443 11,600 -1,200 Descending Boston Center
03:59PM 41.7147 -71.4611 66° East 353 406 11,100 -300 Descending Boston Center
04:00PM 41.7617 -71.3686 56° Northeast 314 361 11,000 -60 Descending Boston Center
04:01PM 41.8214 -71.2894 45° Northeast 295 339 11,000 -600 Level Boston Center
04:02PM 41.8894 -71.2297 33° Northeast 295 339 9,800 -1,560 Descending Boston Center
04:03PM 41.9664 -71.1975 17° North 289 333 7,900 -1,680 Descending Boston Center
04:04PM 42.0306 -71.1656 20° North 267 307 6,500 -1,680 Descending Boston Center
04:05PM 42.0950 -71.1364 19° North 243 280 4,600 -1,320 Descending Boston Center
04:06PM 42.1425 -71.1131 20° North 237 273 4,000 -840 Descending Boston Center
04:07PM 42.2000 -71.0833 21° North 198 228 3,000 -1,080 Descending KA90
04:08PM 42.2500 -71.0500 26° Northeast 191 220 2,000 -960 Descending KA90
04:09PM 42.3000 -71.0333 14° North 150 173 1,100 -900 Descending KA90